Time;durP1;ratioP1;P1;durP2;ratioP2;P2;SDS_P1;SDS_P2;PMS_P1;PMS_P2;Temp;Humidity;BMP_temperature;BMP_pressure;BME280_temperature;BME280_humidity;BME280_pressure;Samples;Min_cycle;Max_cycle;Signal;HPM_P1;HPM_P2
2023/04/15 00:00:45;;;;;;;8.93;4.47;;;6.70;99.90;;;;;;5008813;28;20411;-77
2023/04/15 00:03:11;;;;;;;9.93;4.10;;;6.50;99.90;;;;;;5025743;28;20407;-75
2023/04/15 00:05:37;;;;;;;9.55;4.70;;;6.60;99.90;;;;;;5008536;28;20423;-77
2023/04/15 00:08:03;;;;;;;9.70;4.22;;;6.70;99.90;;;;;;5008773;28;20518;-75
2023/04/15 00:10:28;;;;;;;9.10;4.10;;;6.60;99.90;;;;;;5026602;28;20403;-76
2023/04/15 00:12:54;;;;;;;9.98;4.47;;;6.50;99.90;;;;;;5025879;28;20433;-75
2023/04/15 00:15:20;;;;;;;11.93;5.32;;;6.40;99.90;;;;;;5025957;28;20423;-75
2023/04/15 00:17:45;;;;;;;11.60;5.10;;;6.40;99.90;;;;;;4991025;28;20407;-75
2023/04/15 00:20:11;;;;;;;9.77;4.40;;;6.50;99.90;;;;;;5026144;28;20434;-75
2023/04/15 00:22:37;;;;;;;9.70;4.97;;;6.40;99.90;;;;;;5025138;28;20407;-77
2023/04/15 00:25:03;;;;;;;12.45;5.03;;;6.50;99.90;;;;;;5008591;28;20496;-76
2023/04/15 00:27:29;;;;;;;8.50;3.78;;;6.40;99.90;;;;;;4991848;28;20457;-75
2023/04/15 00:29:55;;;;;;;10.85;4.57;;;6.30;99.90;;;;;;5025499;28;20785;-74
2023/04/15 00:32:20;;;;;;;12.77;4.47;;;6.40;99.90;;;;;;5007782;28;20418;-75
2023/04/15 00:34:46;;;;;;;10.53;5.03;;;6.30;99.90;;;;;;5025337;28;20685;-76
2023/04/15 00:37:12;;;;;;;8.70;4.90;;;6.30;99.90;;;;;;5025683;28;20426;-74
2023/04/15 00:39:38;;;;;;;11.60;5.27;;;6.20;99.90;;;;;;5025638;28;20418;-75
2023/04/15 00:42:04;;;;;;;9.50;4.53;;;6.20;99.90;;;;;;5008838;28;20423;-76
2023/04/15 00:44:31;;;;;;;11.73;5.38;;;6.20;99.90;;;;;;5025488;28;20406;-75
2023/04/15 00:46:57;;;;;;;8.70;4.50;;;6.10;99.90;;;;;;5007923;28;20423;-75
2023/04/15 00:49:23;;;;;;;12.70;6.10;;;6.10;99.90;;;;;;5024522;28;20427;-75
2023/04/15 00:51:49;;;;;;;11.65;6.03;;;6.10;99.90;;;;;;5025067;28;20422;-76
2023/04/15 00:54:15;;;;;;;10.35;4.60;;;6.10;99.90;;;;;;5025331;28;20411;-75
2023/04/15 00:56:41;;;;;;;11.10;4.95;;;6.00;99.90;;;;;;5007614;28;20407;-76
2023/04/15 00:59:08;;;;;;;9.13;4.93;;;6.00;99.90;;;;;;5025662;28;20399;-78
2023/04/15 01:01:37;;;;;;;10.43;5.80;;;5.80;99.90;;;;;;5008254;28;20422;-75
2023/04/15 01:04:03;;;;;;;9.35;5.57;;;5.90;99.90;;;;;;5024718;28;20407;-76
2023/04/15 01:06:32;;;;;;;9.63;5.20;;;5.70;99.90;;;;;;5106415;22;20429;-75
2023/04/15 01:08:59;;;;;;;11.73;5.63;;;5.60;99.90;;;;;;5045174;28;20429;-76
2023/04/15 01:11:25;;;;;;;10.85;5.88;;;5.40;99.90;;;;;;5045132;28;20444;-77
2023/04/15 01:13:52;;;;;;;12.50;5.95;;;5.40;99.90;;;;;;5043325;28;20954;-75
2023/04/15 01:16:18;;;;;;;9.85;5.68;;;5.50;99.90;;;;;;5045273;28;20728;-76
2023/04/15 01:18:45;;;;;;;12.33;6.77;;;5.30;99.90;;;;;;5043817;28;20412;-75
2023/04/15 01:21:11;;;;;;;13.13;6.90;;;5.30;99.90;;;;;;5045509;28;20738;-75
2023/04/15 01:23:38;;;;;;;10.65;6.03;;;5.30;99.90;;;;;;5043489;28;20803;-75
2023/04/15 01:26:06;;;;;;;11.52;7.10;;;5.30;99.90;;;;;;5043848;28;20409;-74
2023/04/15 01:28:32;;;;;;;12.85;6.95;;;5.40;99.90;;;;;;5045158;28;20421;-74
2023/04/15 01:31:06;;;;;;;10.20;6.50;;;5.40;99.90;;;;;;5044436;28;20412;-76
2023/04/15 01:33:32;;;;;;;11.95;6.85;;;5.30;99.90;;;;;;5044253;28;20456;-75
2023/04/15 01:35:57;;;;;;;12.93;7.00;;;5.40;99.90;;;;;;5043883;28;20842;-76
2023/04/15 01:38:24;;;;;;;13.43;7.25;;;5.20;99.90;;;;;;5045017;28;20393;-76
2023/04/15 01:40:50;;;;;;;11.23;6.45;;;5.20;99.90;;;;;;5043468;28;20418;-75
2023/04/15 01:43:16;;;;;;;14.63;7.03;;;5.20;99.90;;;;;;5045183;28;20919;-75
2023/04/15 01:45:42;;;;;;;9.60;6.10;;;5.30;99.90;;;;;;5044250;28;20404;-76
2023/04/15 01:48:08;;;;;;;11.87;6.70;;;5.30;99.90;;;;;;5042624;28;20417;-75
2023/04/15 01:50:35;;;;;;;9.77;7.38;;;5.30;99.90;;;;;;5044557;28;20417;-77
2023/04/15 01:53:01;;;;;;;13.90;7.85;;;5.20;99.90;;;;;;5043372;28;20414;-76
2023/04/15 01:55:26;;;;;;;14.32;7.32;;;5.10;99.90;;;;;;5044238;28;20416;-75
2023/04/15 01:57:52;;;;;;;10.47;7.80;;;5.10;99.90;;;;;;5043513;28;20401;-76
2023/04/15 02:00:18;;;;;;;11.33;7.63;;;5.20;99.90;;;;;;5043968;28;20562;-75
2023/04/15 02:02:43;;;;;;;12.30;8.00;;;5.20;99.90;;;;;;5043161;28;20397;-76
2023/04/15 02:05:09;;;;;;;12.13;7.13;;;5.10;99.90;;;;;;5042593;28;20935;-76
2023/04/15 02:07:36;;;;;;;12.43;8.40;;;5.10;99.90;;;;;;5044208;28;20410;-75
2023/04/15 02:10:02;;;;;;;12.50;8.35;;;5.10;99.90;;;;;;5044350;28;20938;-75
2023/04/15 02:12:29;;;;;;;14.65;8.02;;;5.10;99.90;;;;;;5043055;28;20409;-76
2023/04/15 02:14:55;;;;;;;12.88;9.30;;;5.00;99.90;;;;;;5043845;28;20413;-75
2023/04/15 02:17:20;;;;;;;12.00;7.90;;;5.10;99.90;;;;;;5041932;28;20413;-74
2023/04/15 02:19:47;;;;;;;13.38;9.07;;;4.90;99.90;;;;;;5044392;28;20447;-75
2023/04/15 02:22:17;;;;;;;18.73;10.52;;;5.00;99.90;;;;;;5042902;28;20829;-77
2023/04/15 02:24:43;;;;;;;17.27;9.95;;;5.00;99.90;;;;;;5043713;28;20405;-76
2023/04/15 02:27:09;;;;;;;13.13;8.95;;;5.10;99.90;;;;;;5042349;28;20440;-76
2023/04/15 02:29:34;;;;;;;15.48;9.25;;;5.00;99.90;;;;;;5042630;28;20971;-75
2023/04/15 02:32:00;;;;;;;11.27;8.43;;;5.00;99.90;;;;;;5043464;28;20420;-75
2023/04/15 02:34:26;;;;;;;11.80;9.43;;;4.90;99.90;;;;;;5042707;28;21112;-75
2023/04/15 02:36:56;;;;;;;14.52;8.60;;;4.80;99.90;;;;;;5042405;28;20642;-75
2023/04/15 02:39:21;;;;;;;15.77;9.52;;;4.70;99.90;;;;;;5043465;28;20497;-76
2023/04/15 02:41:51;;;;;;;12.20;9.63;;;4.70;99.90;;;;;;5041911;28;20543;-75
2023/04/15 02:44:19;;;;;;;11.98;9.32;;;4.50;99.90;;;;;;5044037;28;20418;-75
2023/04/15 02:46:49;;;;;;;14.50;9.50;;;4.50;99.90;;;;;;5041982;28;20404;-76
2023/04/15 02:49:15;;;;;;;11.88;9.65;;;4.50;99.90;;;;;;5042538;28;20430;-77
2023/04/15 02:51:41;;;;;;;16.50;9.10;;;4.60;99.90;;;;;;5043099;28;20404;-76
2023/04/15 02:54:07;;;;;;;15.25;10.10;;;4.70;99.90;;;;;;5043360;28;20424;-75
2023/04/15 02:56:33;;;;;;;12.10;9.05;;;4.60;99.90;;;;;;5042172;28;20414;-74
2023/04/15 02:58:59;;;;;;;15.18;9.73;;;4.60;99.90;;;;;;5043206;28;20918;-76
2023/04/15 03:01:25;;;;;;;12.30;9.27;;;4.60;99.90;;;;;;5042076;28;20401;-75
2023/04/15 03:03:50;;;;;;;14.53;9.83;;;4.40;99.90;;;;;;5040890;28;20466;-74
2023/04/15 03:06:16;;;;;;;12.90;9.43;;;4.40;99.90;;;;;;5043077;28;20416;-75
2023/04/15 03:08:42;;;;;;;15.47;9.83;;;4.40;99.90;;;;;;5041569;28;20429;-75
2023/04/15 03:11:07;;;;;;;15.57;11.60;;;4.50;99.90;;;;;;5043363;28;20721;-76
2023/04/15 03:13:33;;;;;;;15.53;9.83;;;4.50;99.90;;;;;;5043881;28;20414;-76
2023/04/15 03:15:59;;;;;;;13.53;10.17;;;4.60;99.90;;;;;;5042932;28;20401;-75
2023/04/15 03:18:25;;;;;;;29.17;11.50;;;4.60;99.90;;;;;;5042708;28;20556;-75
2023/04/15 03:20:50;;;;;;;14.57;10.98;;;4.60;99.90;;;;;;5041754;28;20919;-75
2023/04/15 03:23:16;;;;;;;13.20;10.33;;;4.70;99.90;;;;;;5043263;28;20421;-76
2023/04/15 03:25:43;;;;;;;15.13;10.27;;;4.70;99.90;;;;;;5024863;28;20405;-75
2023/04/15 03:28:09;;;;;;;11.40;10.20;;;4.50;99.90;;;;;;5043461;28;20432;-77
2023/04/15 03:30:35;;;;;;;12.07;10.30;;;4.50;99.90;;;;;;5043275;28;20930;-76
2023/04/15 03:33:01;;;;;;;13.57;10.27;;;4.50;99.90;;;;;;5042543;28;20451;-75
2023/04/15 03:35:26;;;;;;;12.47;10.07;;;4.40;99.90;;;;;;5042816;28;20445;-76
2023/04/15 03:37:52;;;;;;;17.30;10.23;;;4.20;99.90;;;;;;5041519;28;20405;-75
2023/04/15 03:40:17;;;;;;;14.47;10.70;;;4.40;99.90;;;;;;5041518;28;20414;-76
2023/04/15 03:42:43;;;;;;;14.33;10.57;;;4.50;99.90;;;;;;5041689;28;20394;-76
2023/04/15 03:45:09;;;;;;;12.23;10.07;;;4.50;99.90;;;;;;5041872;28;20416;-75
2023/04/15 03:47:35;;;;;;;13.13;10.68;;;4.40;99.90;;;;;;5042276;28;20405;-76
2023/04/15 03:50:00;;;;;;;15.25;11.48;;;4.50;99.90;;;;;;5025073;28;20785;-74
2023/04/15 03:52:26;;;;;;;14.13;10.60;;;4.40;99.90;;;;;;5041631;28;20410;-74
2023/04/15 03:54:52;;;;;;;14.60;11.07;;;4.40;99.90;;;;;;5040885;28;20405;-75
2023/04/15 03:57:17;;;;;;;14.33;10.97;;;4.30;99.90;;;;;;5041623;28;20768;-74
2023/04/15 03:59:43;;;;;;;13.40;11.10;;;4.30;99.90;;;;;;5045016;28;20773;-74
2023/04/15 04:02:08;;;;;;;14.93;12.17;;;4.30;99.90;;;;;;5045558;28;20413;-76
2023/04/15 04:04:34;;;;;;;16.77;12.40;;;4.40;99.90;;;;;;5047059;28;20768;-75
2023/04/15 04:07:00;;;;;;;17.17;12.60;;;4.30;99.90;;;;;;5044536;28;20424;-75
2023/04/15 04:09:26;;;;;;;15.33;12.97;;;4.30;99.90;;;;;;5046808;28;20439;-75
2023/04/15 04:11:52;;;;;;;17.20;13.48;;;4.30;99.90;;;;;;5046827;28;20791;-75
2023/04/15 04:14:17;;;;;;;18.42;13.98;;;4.20;99.90;;;;;;5046731;28;20417;-74
2023/04/15 04:16:44;;;;;;;20.15;15.07;;;4.40;99.90;;;;;;5046226;28;20444;-76
2023/04/15 04:19:09;;;;;;;16.90;14.40;;;4.40;99.90;;;;;;5045733;28;20496;-75
2023/04/15 04:21:35;;;;;;;18.80;13.77;;;4.40;99.90;;;;;;5046461;28;20473;-75
2023/04/15 04:24:01;;;;;;;18.63;14.03;;;4.20;99.90;;;;;;5046459;28;20413;-75
2023/04/15 04:26:27;;;;;;;18.88;15.95;;;4.30;99.90;;;;;;5027982;28;20767;-74
2023/04/15 04:28:52;;;;;;;21.13;15.13;;;4.40;99.90;;;;;;5046034;28;20425;-75
2023/04/15 04:31:18;;;;;;;18.77;15.32;;;4.20;99.90;;;;;;5045959;28;20488;-76
2023/04/15 04:33:44;;;;;;;20.13;16.15;;;4.30;99.90;;;;;;5043368;28;20413;-75
2023/04/15 04:36:09;;;;;;;17.73;15.82;;;4.30;99.90;;;;;;5028040;28;20772;-76
2023/04/15 04:38:35;;;;;;;19.33;15.13;;;4.30;99.90;;;;;;5045890;28;20810;-75
2023/04/15 04:41:01;;;;;;;18.92;15.38;;;4.30;99.90;;;;;;5046164;28;20413;-75
2023/04/15 04:43:26;;;;;;;19.80;15.00;;;4.30;99.90;;;;;;5045977;28;20409;-76
2023/04/15 04:45:52;;;;;;;18.95;15.55;;;4.40;99.90;;;;;;5043904;28;20413;-76
2023/04/15 04:48:18;;;;;;;19.52;16.75;;;4.40;99.90;;;;;;5044837;28;20798;-75
2023/04/15 04:50:45;;;;;;;19.02;15.93;;;4.40;99.90;;;;;;5044034;28;20487;-76
2023/04/15 04:53:11;;;;;;;19.58;15.68;;;4.30;99.90;;;;;;5045237;28;20465;-75
2023/04/15 04:55:37;;;;;;;22.67;16.27;;;4.40;99.90;;;;;;5045318;28;20409;-75
2023/04/15 04:58:03;;;;;;;21.00;17.10;;;4.40;99.90;;;;;;5045451;28;20899;-75
2023/04/15 05:00:28;;;;;;;21.10;17.00;;;4.40;99.90;;;;;;5045704;28;20970;-75
2023/04/15 05:02:54;;;;;;;21.88;16.88;;;4.50;99.90;;;;;;5042815;28;20410;-76
2023/04/15 05:05:20;;;;;;;20.83;17.10;;;4.50;99.90;;;;;;5045169;28;20405;-74
2023/04/15 05:07:48;;;;;;;19.50;17.00;;;4.60;99.90;;;;;;5045241;28;20768;-74
2023/04/15 05:10:14;;;;;;;18.70;16.55;;;4.60;99.90;;;;;;5044950;28;20424;-75
2023/04/15 05:12:40;;;;;;;20.73;17.17;;;4.60;99.90;;;;;;5043458;28;20413;-75
2023/04/15 05:15:06;;;;;;;18.30;15.95;;;5.00;99.90;;;;;;5045037;28;20417;-76
2023/04/15 05:17:34;;;;;;;21.33;16.35;;;5.20;99.90;;;;;;5044205;28;20745;-75
2023/04/15 05:20:00;;;;;;;17.30;15.20;;;5.30;99.90;;;;;;5045028;28;20405;-74
2023/04/15 05:22:26;;;;;;;18.27;15.20;;;5.40;99.90;;;;;;5044753;28;20405;-74
2023/04/15 05:24:51;;;;;;;16.27;14.20;;;5.50;99.90;;;;;;5044501;28;20413;-75
2023/04/15 05:27:18;;;;;;;17.40;13.87;;;5.90;99.90;;;;;;5045363;28;20409;-76
2023/04/15 05:29:43;;;;;;;17.77;14.23;;;5.90;99.90;;;;;;5043447;28;20437;-74
2023/04/15 05:32:09;;;;;;;16.77;14.88;;;6.30;99.90;;;;;;5043922;28;20397;-76
2023/04/15 05:34:35;;;;;;;15.70;14.10;;;6.30;99.90;;;;;;5026837;28;20432;-77
2023/04/15 05:37:01;;;;;;;16.03;14.33;;;6.50;99.90;;;;;;5044852;28;20432;-76
2023/04/15 05:39:26;;;;;;;14.63;13.03;;;6.40;99.90;;;;;;5045119;28;20433;-75
2023/04/15 05:41:52;;;;;;;15.07;13.47;;;6.30;99.90;;;;;;5044037;28;20406;-74
2023/04/15 05:44:18;;;;;;;16.13;14.53;;;6.30;99.90;;;;;;5044466;28;20424;-75
2023/04/15 05:46:43;;;;;;;17.13;15.33;;;6.10;99.90;;;;;;5043017;28;20393;-75
2023/04/15 05:49:09;;;;;;;17.57;14.33;;;6.20;99.90;;;;;;5044177;28;20563;-75
2023/04/15 05:51:35;;;;;;;15.80;13.80;;;6.20;99.90;;;;;;5044170;28;20397;-75
2023/04/15 05:54:01;;;;;;;16.00;14.40;;;6.20;99.90;;;;;;5043293;28;20417;-75
2023/04/15 05:56:26;;;;;;;15.73;13.07;;;6.20;99.90;;;;;;5044179;28;20407;-74
2023/04/15 05:58:52;;;;;;;15.40;13.30;;;6.50;99.90;;;;;;5026050;28;20445;-75
2023/04/15 06:01:18;;;;;;;14.37;12.33;;;6.40;99.90;;;;;;5044188;28;20393;-74
2023/04/15 06:03:43;;;;;;;14.77;12.50;;;6.70;99.90;;;;;;5043109;28;20926;-75
2023/04/15 06:06:09;;;;;;;15.63;13.83;;;6.80;99.90;;;;;;5043479;28;20471;-76
2023/04/15 06:08:35;;;;;;;12.97;11.63;;;6.90;99.90;;;;;;5044618;28;20946;-76
2023/04/15 06:11:01;;;;;;;13.10;11.70;;;7.00;99.90;;;;;;5044678;28;20411;-75
2023/04/15 06:13:26;;;;;;;12.80;11.47;;;6.90;99.90;;;;;;5043925;28;20444;-75
2023/04/15 06:15:52;;;;;;;12.70;11.10;;;7.20;99.90;;;;;;5043765;28;20960;-75
2023/04/15 06:18:19;;;;;;;14.40;11.43;;;7.30;99.90;;;;;;5042777;28;20587;-76
2023/04/15 06:20:45;;;;;;;13.43;11.95;;;7.10;99.90;;;;;;5043454;28;20467;-76
2023/04/15 06:23:11;;;;;;;12.60;11.23;;;7.10;99.90;;;;;;5044007;28;20890;-76
2023/04/15 06:25:36;;;;;;;13.27;11.25;;;7.00;99.90;;;;;;5045466;28;20410;-77
2023/04/15 06:28:02;;;;;;;13.38;11.65;;;7.00;99.90;;;;;;5045196;28;20417;-76
2023/04/15 06:30:28;;;;;;;13.43;12.02;;;7.00;99.90;;;;;;5043951;28;20776;-76
2023/04/15 06:32:54;;;;;;;13.73;12.35;;;7.00;99.90;;;;;;5024466;28;20918;-74
2023/04/15 06:35:20;;;;;;;14.63;12.63;;;7.10;99.90;;;;;;5042083;28;20944;-74
2023/04/15 06:37:46;;;;;;;13.65;12.18;;;7.10;99.90;;;;;;5043385;28;20430;-76
2023/04/15 06:40:12;;;;;;;15.32;13.25;;;7.10;99.90;;;;;;5045076;28;20483;-76
2023/04/15 06:42:38;;;;;;;13.85;12.02;;;7.10;99.90;;;;;;5045410;28;20445;-75
2023/04/15 06:45:04;;;;;;;16.53;14.00;;;7.20;99.90;;;;;;5046399;28;20495;-74
2023/04/15 06:47:30;;;;;;;14.90;13.38;;;7.30;99.90;;;;;;5044455;28;20393;-76
2023/04/15 06:49:56;;;;;;;14.90;12.13;;;7.40;99.90;;;;;;5046141;28;21098;-76
2023/04/15 06:52:21;;;;;;;13.57;11.80;;;7.50;99.90;;;;;;5046857;28;20492;-77
2023/04/15 06:54:47;;;;;;;15.50;12.38;;;7.80;99.90;;;;;;5045966;28;20411;-76
2023/04/15 06:57:12;;;;;;;15.40;12.10;;;8.00;99.90;;;;;;5046638;28;20449;-75
2023/04/15 06:59:38;;;;;;;16.15;11.82;;;8.30;99.90;;;;;;5045145;28;20915;-76
2023/04/15 07:02:04;;;;;;;14.53;12.63;;;8.50;99.90;;;;;;5046053;28;20401;-74
2023/04/15 07:04:30;;;;;;;17.33;12.37;;;8.80;99.90;;;;;;5046525;28;20417;-75
2023/04/15 07:06:56;;;;;;;13.73;11.60;;;9.10;99.90;;;;;;5046747;28;20405;-74
2023/04/15 07:09:22;;;;;;;15.20;11.88;;;9.50;99.90;;;;;;5047175;28;20882;-77
2023/04/15 07:11:48;;;;;;;13.45;10.95;;;9.50;99.90;;;;;;5045286;28;20409;-75
2023/04/15 07:14:14;;;;;;;14.15;11.00;;;9.00;99.90;;;;;;5043761;28;20401;-76
2023/04/15 07:16:39;;;;;;;13.13;11.02;;;9.00;99.90;;;;;;5042252;28;20459;-75
2023/04/15 07:19:05;;;;;;;12.67;10.87;;;8.90;99.90;;;;;;5043180;28;20500;-75
2023/04/15 07:21:31;;;;;;;13.33;11.37;;;8.70;99.90;;;;;;5043322;28;20409;-76
2023/04/15 07:23:57;;;;;;;12.47;10.87;;;8.90;99.90;;;;;;5041659;28;20752;-76
2023/04/15 07:26:23;;;;;;;11.57;10.38;;;9.00;99.90;;;;;;5042930;28;20480;-75
2023/04/15 07:28:49;;;;;;;13.07;10.95;;;8.90;99.90;;;;;;5041636;28;20801;-77
2023/04/15 07:31:15;;;;;;;14.70;11.52;;;9.00;99.90;;;;;;5042572;28;20405;-76
2023/04/15 07:33:41;;;;;;;12.50;10.55;;;9.00;99.90;;;;;;5044588;28;20680;-76
2023/04/15 07:36:07;;;;;;;11.75;10.00;;;9.20;99.90;;;;;;5046819;28;20397;-77
2023/04/15 07:38:32;;;;;;;9.52;8.05;;;9.30;99.90;;;;;;5045405;28;20911;-76
2023/04/15 07:40:58;;;;;;;9.65;8.68;;;9.10;99.90;;;;;;5028455;28;20775;-77
2023/04/15 07:43:24;;;;;;;9.73;8.10;;;9.30;99.90;;;;;;5046830;28;20743;-77
2023/04/15 07:45:49;;;;;;;11.43;8.30;;;9.20;99.90;;;;;;5045987;28;20401;-74
2023/04/15 07:48:15;;;;;;;10.10;7.57;;;9.40;99.90;;;;;;5045565;28;20413;-76
2023/04/15 07:50:41;;;;;;;9.17;7.60;;;9.50;99.90;;;;;;5046643;28;20414;-75
2023/04/15 07:53:08;;;;;;;8.25;6.75;;;9.70;99.90;;;;;;5046697;28;20610;-75
2023/04/15 07:55:33;;;;;;;7.90;6.53;;;9.70;99.90;;;;;;5045317;28;20469;-74
2023/04/15 07:57:59;;;;;;;7.47;5.53;;;9.80;99.90;;;;;;5044835;28;20413;-75
2023/04/15 08:00:25;;;;;;;7.50;5.90;;;9.50;99.90;;;;;;5046680;28;20516;-76
2023/04/15 08:02:52;;;;;;;6.70;5.88;;;9.80;99.90;;;;;;5044124;28;20502;-76
2023/04/15 08:05:18;;;;;;;5.85;5.25;;;9.90;99.90;;;;;;5044591;28;20418;-75
2023/04/15 08:07:44;;;;;;;6.43;4.63;;;10.00;99.90;;;;;;5046059;28;20407;-74
2023/04/15 08:10:10;;;;;;;6.47;5.65;;;10.10;99.90;;;;;;5044820;28;20919;-77
2023/04/15 08:12:36;;;;;;;4.63;4.10;;;10.00;99.90;;;;;;5044501;28;20405;-75
2023/04/15 08:15:03;;;;;;;5.20;3.97;;;10.10;99.90;;;;;;5046279;28;20405;-75
2023/04/15 08:17:28;;;;;;;5.85;4.00;;;9.90;99.90;;;;;;5044825;28;20588;-74
2023/04/15 08:19:54;;;;;;;4.83;4.00;;;10.10;99.90;;;;;;5046414;28;20433;-76
2023/04/15 08:22:20;;;;;;;5.63;3.60;;;10.20;99.90;;;;;;5044679;28;20491;-77
2023/04/15 08:24:45;;;;;;;4.60;3.90;;;10.20;99.90;;;;;;5045717;28;20413;-76
2023/04/15 08:27:11;;;;;;;5.90;3.72;;;9.80;99.90;;;;;;5046029;28;20401;-76
2023/04/15 08:29:37;;;;;;;6.28;3.78;;;9.80;99.90;;;;;;5044019;28;20433;-76
2023/04/15 08:32:03;;;;;;;5.95;4.15;;;10.30;99.90;;;;;;5043730;28;20452;-77
2023/04/15 08:34:29;;;;;;;7.00;4.70;;;9.70;99.90;;;;;;5046164;28;20440;-76
2023/04/15 08:36:55;;;;;;;6.10;3.90;;;9.70;99.90;;;;;;5043748;28;21005;-75
2023/04/15 08:39:21;;;;;;;5.75;3.88;;;9.50;99.90;;;;;;5045851;28;20432;-75
2023/04/15 08:41:59;;;;;;;5.28;3.90;;;9.30;99.90;;;;;;5045331;28;20919;-76
2023/04/15 08:44:28;;;;;;;7.22;4.57;;;9.30;99.90;;;;;;5044738;28;20918;-75
2023/04/15 08:46:55;;;;;;;6.28;4.47;;;9.50;99.90;;;;;;5044224;28;20393;-75
2023/04/15 08:49:25;;;;;;;5.80;3.88;;;9.80;99.90;;;;;;5045468;28;20433;-76
2023/04/15 08:51:52;;;;;;;4.80;3.13;;;9.50;99.90;;;;;;5044904;28;20436;-74
2023/04/15 08:54:18;;;;;;;5.50;4.03;;;9.70;99.90;;;;;;5044898;28;20409;-76
2023/04/15 08:56:44;;;;;;;6.70;3.70;;;9.80;99.90;;;;;;5043931;28;20402;-74
2023/04/15 08:59:10;;;;;;;7.20;4.10;;;9.70;99.90;;;;;;5043369;28;20418;-76
2023/04/15 09:01:37;;;;;;;5.53;4.05;;;9.70;99.90;;;;;;5044012;28;20419;-77
2023/04/15 09:04:06;;;;;;;4.93;3.00;;;9.50;99.90;;;;;;5045296;28;20453;-75
2023/04/15 09:06:32;;;;;;;5.28;3.50;;;9.40;99.90;;;;;;5044365;28;20412;-75
2023/04/15 09:08:58;;;;;;;5.78;3.00;;;9.20;99.90;;;;;;5044127;28;20425;-76
2023/04/15 09:11:24;;;;;;;4.60;3.07;;;9.40;99.90;;;;;;5045682;28;20751;-75
2023/04/15 09:13:50;;;;;;;7.22;3.72;;;9.20;99.90;;;;;;5044896;28;20497;-76
2023/04/15 09:16:16;;;;;;;4.47;3.10;;;9.50;99.90;;;;;;5044384;28;20987;-75
2023/04/15 09:18:42;;;;;;;6.10;3.00;;;9.60;99.90;;;;;;5044866;28;20496;-77
2023/04/15 09:21:10;;;;;;;3.83;2.28;;;9.50;99.90;;;;;;5043795;28;20414;-75
2023/04/15 09:23:37;;;;;;;3.60;2.28;;;9.60;99.90;;;;;;5043440;28;20780;-76
2023/04/15 09:26:04;;;;;;;4.40;2.70;;;9.50;99.90;;;;;;5045482;28;20736;-75
2023/04/15 09:28:30;;;;;;;5.75;2.80;;;9.80;99.90;;;;;;5043619;28;20861;-75
2023/04/15 09:30:59;;;;;;;5.38;2.17;;;9.50;99.90;;;;;;5042425;28;20436;-73
2023/04/15 09:33:26;;;;;;;6.95;3.15;;;9.60;99.90;;;;;;5045077;28;20419;-76
2023/04/15 09:36:00;;;;;;;4.97;2.47;;;9.80;99.90;;;;;;5045045;28;20409;-75
2023/04/15 09:38:26;;;;;;;3.47;2.38;;;9.70;99.90;;;;;;5043490;28;20417;-76
2023/04/15 09:40:52;;;;;;;4.30;2.40;;;9.90;99.90;;;;;;5044578;28;20780;-75
2023/04/15 09:43:18;;;;;;;5.82;2.58;;;10.00;99.90;;;;;;5044802;28;20481;-75
2023/04/15 09:45:48;;;;;;;6.70;2.43;;;10.10;99.90;;;;;;5044657;28;20451;-75
2023/04/15 09:48:22;;;;;;;8.97;2.20;;;10.40;99.90;;;;;;5043504;28;20958;-76
2023/04/15 09:50:49;;;;;;;3.28;2.03;;;10.10;99.90;;;;;;5042777;28;20547;-76
2023/04/15 09:53:17;;;;;;;6.30;2.30;;;10.20;99.90;;;;;;5044494;28;20572;-76
2023/04/15 09:55:55;;;;;;;5.80;1.83;;;10.20;99.90;;;;;;5043119;28;21259;-77
2023/04/15 09:58:32;;;;;;;5.20;2.28;;;9.90;99.90;;;;;;5044704;28;20405;-75
2023/04/15 10:01:00;;;;;;;3.83;1.50;;;10.60;99.90;;;;;;5043501;28;20520;-74
2023/04/15 10:03:28;;;;;;;2.25;1.50;;;10.40;99.90;;;;;;5043499;28;20524;-76
2023/04/15 10:05:56;;;;;;;2.08;1.50;;;10.20;99.90;;;;;;5044645;28;20830;-75
2023/04/15 10:08:24;;;;;;;2.93;1.23;;;9.90;99.90;;;;;;5044286;28;20420;-75
2023/04/15 10:10:53;;;;;;;4.18;1.40;;;9.90;99.90;;;;;;5044418;28;20425;-75
2023/04/15 10:13:23;;;;;;;5.35;1.30;;;10.40;99.90;;;;;;5044264;28;20484;-76
2023/04/15 10:15:57;;;;;;;3.25;1.10;;;10.20;99.90;;;;;;5042720;28;20813;-76
2023/04/15 10:18:26;;;;;;;2.42;1.50;;;10.30;99.90;;;;;;5044327;28;20471;-77
2023/04/15 10:20:52;;;;;;;3.70;1.40;;;10.40;99.90;;;;;;5043881;28;20413;-75
2023/04/15 10:23:19;;;;;;;3.70;1.05;;;10.60;99.90;;;;;;5043242;28;20977;-75
2023/04/15 10:25:46;;;;;;;2.58;1.00;;;10.00;99.90;;;;;;5044209;28;20498;-75
2023/04/15 10:28:13;;;;;;;1.95;0.88;;;10.10;99.90;;;;;;5042633;28;20409;-76
2023/04/15 10:30:39;;;;;;;3.20;1.10;;;10.10;99.90;;;;;;5043719;28;20412;-75
2023/04/15 10:33:05;;;;;;;3.13;1.33;;;10.00;99.90;;;;;;5043290;28;20923;-75
2023/04/15 10:35:35;;;;;;;4.57;1.73;;;10.20;99.90;;;;;;5043050;28;20417;-74
2023/04/15 10:38:01;;;;;;;1.67;0.70;;;10.00;99.90;;;;;;5044496;28;20477;-76
2023/04/15 10:40:28;;;;;;;4.70;1.27;;;9.90;99.90;;;;;;5026269;28;20479;-75
2023/04/15 10:42:58;;;;;;;3.03;1.17;;;9.80;99.90;;;;;;5043711;28;20439;-75
2023/04/15 10:45:31;;;;;;;3.28;0.80;;;9.80;99.90;;;;;;5043509;28;20484;-76
2023/04/15 10:48:00;;;;;;;3.97;1.10;;;9.90;99.90;;;;;;5042493;28;20413;-75
2023/04/15 10:50:27;;;;;;;2.10;1.00;;;9.80;99.90;;;;;;5025566;28;20499;-76
2023/04/15 10:52:53;;;;;;;3.10;1.30;;;9.90;99.90;;;;;;5043611;28;20409;-74
2023/04/15 10:55:21;;;;;;;2.33;0.90;;;9.90;99.90;;;;;;5042021;28;21144;-75
2023/04/15 10:57:51;;;;;;;2.97;1.00;;;9.70;99.90;;;;;;5043446;28;20449;-74
2023/04/15 11:00:18;;;;;;;3.08;1.20;;;9.80;99.90;;;;;;5043349;28;20396;-75
2023/04/15 11:02:55;;;;;;;3.47;1.73;;;10.00;99.90;;;;;;5042570;28;20943;-73
2023/04/15 11:05:49;;;;;;;4.70;1.63;;;9.70;99.90;;;;;;5043213;28;20484;-76
2023/04/15 11:08:15;;;;;;;7.63;1.83;;;9.70;99.90;;;;;;5047265;28;20440;-76
2023/04/15 11:10:40;;;;;;;3.13;1.08;;;9.90;99.90;;;;;;5047220;28;20416;-74
2023/04/15 11:13:09;;;;;;;2.78;1.25;;;9.90;99.90;;;;;;5047684;28;20485;-77
2023/04/15 11:15:41;;;;;;;4.22;1.33;;;10.10;99.90;;;;;;5047322;28;20444;-75
2023/04/15 11:18:12;;;;;;;3.67;1.33;;;9.90;99.90;;;;;;5047744;28;20575;-75
2023/04/15 11:20:39;;;;;;;5.10;1.20;;;9.80;99.90;;;;;;5047083;28;20787;-75
2023/04/15 11:23:06;;;;;;;3.30;1.15;;;9.70;99.90;;;;;;5048083;28;20409;-75
2023/04/15 11:25:33;;;;;;;4.40;1.83;;;10.00;99.90;;;;;;5047807;28;20409;-74
2023/04/15 11:28:00;;;;;;;4.22;1.50;;;9.90;99.90;;;;;;5046157;28;20413;-77
2023/04/15 11:30:28;;;;;;;4.57;1.87;;;9.90;99.90;;;;;;5047569;28;20879;-76
2023/04/15 11:32:58;;;;;;;3.95;1.52;;;9.80;99.90;;;;;;5046270;28;20401;-76
2023/04/15 11:35:23;;;;;;;5.63;1.73;;;9.80;99.90;;;;;;5046154;28;20449;-76
2023/04/15 11:37:49;;;;;;;5.17;2.57;;;9.80;99.90;;;;;;5047297;28;20490;-76
2023/04/15 11:40:16;;;;;;;8.32;2.20;;;9.90;99.90;;;;;;5047902;28;20701;-77
2023/04/15 11:42:46;;;;;;;6.50;2.03;;;9.70;99.90;;;;;;5046814;28;20409;-75
2023/04/15 11:45:14;;;;;;;5.05;1.60;;;9.50;99.90;;;;;;5047383;28;20414;-77
2023/04/15 11:47:42;;;;;;;4.88;1.67;;;9.50;99.90;;;;;;5046307;28;21150;-76
2023/04/15 11:50:19;;;;;;;6.57;1.90;;;9.40;99.90;;;;;;5046961;28;20888;-77
2023/04/15 11:52:55;;;;;;;7.30;2.28;;;9.30;99.90;;;;;;5046704;28;20409;-76
2023/04/15 11:55:22;;;;;;;10.65;2.38;;;9.40;99.90;;;;;;5046926;28;20811;-75
2023/04/15 11:58:10;;;;;;;6.63;2.05;;;9.30;99.90;;;;;;5046966;28;20476;-78
2023/04/15 12:00:36;;;;;;;6.53;1.73;;;9.40;99.90;;;;;;5045310;28;20606;-78
2023/04/15 12:03:21;;;;;;;5.53;1.60;;;9.20;99.90;;;;;;5045870;28;20951;-75
2023/04/15 12:06:03;;;;;;;6.30;1.55;;;9.30;99.90;;;;;;5046089;28;20417;-76
2023/04/15 12:09:19;;;;;;;6.38;1.10;;;9.30;99.90;;;;;;5046627;28;20927;-77
2023/04/15 12:11:47;;;;;;;4.20;2.55;;;9.30;99.90;;;;;;5001514;28;20910;-75
2023/04/15 12:14:23;;;;;;;4.93;1.50;;;9.60;99.90;;;;;;5046860;28;20397;-77
2023/04/15 12:16:52;;;;;;;9.82;2.92;;;9.40;99.90;;;;;;5044869;28;20405;-75
2023/04/15 12:19:45;;;;;;;4.90;1.70;;;9.40;99.90;;;;;;5045194;28;20922;-75
2023/04/15 12:22:12;;;;;;;8.60;2.15;;;9.20;99.90;;;;;;5037640;28;20802;-76
2023/04/15 12:24:39;;;;;;;7.55;1.67;;;9.20;99.90;;;;;;5044477;28;20723;-75
2023/04/15 12:27:10;;;;;;;8.18;2.50;;;9.10;99.90;;;;;;5046424;28;20397;-76
2023/04/15 12:29:37;;;;;;;7.05;1.90;;;9.10;99.90;;;;;;5045976;28;20512;-78
2023/04/15 12:32:11;;;;;;;9.43;2.10;;;9.20;99.90;;;;;;5045148;28;20401;-77
2023/04/15 12:34:40;;;;;;;7.45;1.83;;;9.40;99.90;;;;;;5046077;28;20409;-77
2023/04/15 12:37:08;;;;;;;9.88;1.88;;;9.50;99.90;;;;;;5046321;28;20428;-79
2023/04/15 12:39:39;;;;;;;13.17;2.80;;;9.40;99.90;;;;;;5046619;28;20401;-77
2023/04/15 12:42:06;;;;;;;10.23;2.33;;;9.20;99.90;;;;;;5044817;28;20933;-75
2023/04/15 12:44:32;;;;;;;8.75;2.47;;;9.30;99.90;;;;;;5046140;28;20385;-75